Time;durP1;ratioP1;P1;durP2;ratioP2;P2;SDS_P1;SDS_P2;PMS_P1;PMS_P2;Temp;Humidity;BMP_temperature;BMP_pressure;BME280_temperature;BME280_humidity;BME280_pressure;Samples;Min_cycle;Max_cycle;Signal;HPM_P1;HPM_P2
2023/06/08 00:00:20;;;;;;;7.53;3.97;;;;;;;18.36;74.76;95192.59;4862924;29;20214;-76
2023/06/08 00:02:46;;;;;;;7.17;3.83;;;;;;;18.26;74.28;95188.97;4854693;29;20200;-75
2023/06/08 00:05:13;;;;;;;7.80;3.50;;;;;;;18.19;74.79;95197.09;4859030;29;20768;-76
2023/06/08 00:07:40;;;;;;;7.47;3.70;;;;;;;18.15;74.40;95199.38;4833031;29;20263;-75
2023/06/08 00:10:08;;;;;;;5.77;3.87;;;;;;;18.13;74.75;95203.31;4844568;29;20193;-75
2023/06/08 00:12:34;;;;;;;5.67;3.60;;;;;;;18.10;74.35;95201.94;4859793;29;20227;-76
2023/06/08 00:15:00;;;;;;;5.50;3.80;;;;;;;18.15;74.56;95206.53;4846830;29;20211;-75
2023/06/08 00:17:25;;;;;;;6.07;3.60;;;;;;;18.09;74.38;95197.72;4847813;29;20211;-76
2023/06/08 00:19:52;;;;;;;6.37;3.63;;;;;;;18.09;74.84;95204.84;4849643;29;20588;-76
2023/06/08 00:22:18;;;;;;;8.83;3.60;;;;;;;17.96;74.72;95202.50;4858749;29;20244;-76
2023/06/08 00:24:43;;;;;;;6.00;3.43;;;;;;;18.01;74.64;95199.94;4852320;29;20746;-75
2023/06/08 00:27:09;;;;;;;8.33;3.40;;;;;;;18.08;74.92;95200.59;4847523;29;21081;-75
2023/06/08 00:29:34;;;;;;;5.10;3.50;;;;;;;18.02;74.66;95199.72;4853075;29;20583;-75
2023/06/08 00:32:00;;;;;;;7.20;3.37;;;;;;;18.00;74.77;95208.94;4863813;29;20220;-75
2023/06/08 00:34:26;;;;;;;7.27;3.37;;;;;;;17.91;75.43;95202.41;4859482;29;21186;-76
2023/06/08 00:36:52;;;;;;;8.00;3.60;;;;;;;17.86;75.93;95203.13;4866664;29;20310;-75
2023/06/08 00:39:17;;;;;;;5.73;3.37;;;;;;;17.74;75.91;95201.56;4852528;29;20290;-75
2023/06/08 00:41:43;;;;;;;6.17;3.20;;;;;;;17.88;76.40;95205.53;4868885;29;20216;-75
2023/06/08 00:44:08;;;;;;;7.10;3.50;;;;;;;17.86;75.93;95197.03;4852038;29;20267;-75
2023/06/08 00:46:34;;;;;;;7.70;3.30;;;;;;;17.78;76.23;95194.75;4847410;29;20204;-75
2023/06/08 00:49:00;;;;;;;6.27;3.23;;;;;;;17.74;76.74;95198.91;4850257;29;20196;-75
2023/06/08 00:51:28;;;;;;;7.27;3.60;;;;;;;17.66;76.82;95201.94;4872706;29;20216;-75
2023/06/08 00:53:56;;;;;;;7.27;3.30;;;;;;;17.77;76.76;95193.16;4861234;29;20192;-74
2023/06/08 00:56:26;;;;;;;9.33;3.50;;;;;;;17.64;77.06;95202.19;4849814;29;20271;-75
2023/06/08 00:58:52;;;;;;;5.57;3.50;;;;;;;17.75;76.12;95197.88;4867661;29;20228;-75
2023/06/08 01:01:18;;;;;;;6.20;3.30;;;;;;;17.73;76.35;95197.31;4863110;29;20208;-75
2023/06/08 01:03:46;;;;;;;9.00;3.57;;;;;;;17.76;77.10;95192.34;4860210;29;20264;-75
2023/06/08 01:06:13;;;;;;;6.47;3.20;;;;;;;17.72;76.67;95193.06;4848012;29;20334;-74
2023/06/08 01:08:52;;;;;;;10.77;3.40;;;;;;;17.58;77.16;95199.69;4859398;29;20196;-75
2023/06/08 01:11:44;;;;;;;6.27;3.40;;;;;;;17.60;78.11;95203.66;4862327;29;20216;-75
2023/06/08 01:14:45;;;;;;;6.27;3.30;;;;;;;17.68;77.06;95202.50;4870739;29;20210;-75
2023/06/08 01:17:12;;;;;;;6.77;3.57;;;;;;;17.66;76.77;95202.75;4842717;29;20230;-75
2023/06/08 01:19:56;;;;;;;10.03;3.30;;;;;;;17.53;77.55;95196.94;4845224;29;20192;-74
2023/06/08 01:22:56;;;;;;;5.87;3.07;;;;;;;17.45;77.40;95193.59;4867410;29;20264;-75
2023/06/08 01:25:25;;;;;;;7.53;3.33;;;;;;;17.50;77.43;95195.53;4868324;29;20292;-75
2023/06/08 01:27:51;;;;;;;5.67;3.30;;;;;;;17.49;78.01;95197.38;4835268;29;20222;-74
2023/06/08 01:30:17;;;;;;;5.43;3.50;;;;;;;17.43;77.58;95200.16;4837214;29;20192;-75
2023/06/08 01:32:43;;;;;;;4.70;3.40;;;;;;;17.44;77.63;95197.25;4848621;29;20229;-75
2023/06/08 01:35:09;;;;;;;7.90;3.47;;;;;;;17.37;78.56;95193.94;4841027;29;20659;-74
2023/06/08 01:37:43;;;;;;;6.93;3.77;;;;;;;17.31;77.91;95200.19;4822335;29;20212;-75
2023/06/08 01:40:25;;;;;;;7.37;3.30;;;;;;;17.34;77.83;95199.69;4833873;29;20752;-75
2023/06/08 01:42:50;;;;;;;9.47;3.23;;;;;;;17.25;78.15;95192.38;4840911;29;20195;-75
2023/06/08 01:45:21;;;;;;;6.10;3.40;;;;;;;17.24;78.63;95191.56;4858393;29;20200;-75
2023/06/08 01:47:56;;;;;;;6.30;3.40;;;;;;;17.20;78.50;95189.59;4851383;29;20189;-75
2023/06/08 01:50:22;;;;;;;6.97;3.57;;;;;;;17.21;78.68;95186.75;4845506;29;20192;-75
2023/06/08 01:52:47;;;;;;;8.33;3.87;;;;;;;17.16;78.51;95185.84;4865221;29;20249;-75
2023/06/08 01:55:16;;;;;;;7.20;3.57;;;;;;;17.29;78.96;95196.16;4835061;29;20227;-75
2023/06/08 01:57:42;;;;;;;5.67;3.40;;;;;;;17.29;78.70;95196.94;4848713;29;20204;-75
2023/06/08 02:00:08;;;;;;;7.70;3.67;;;;;;;17.18;78.68;95189.03;4846526;29;20204;-75
2023/06/08 02:02:35;;;;;;;5.83;3.60;;;;;;;17.12;78.90;95195.28;4819187;29;20223;-75
2023/06/08 02:05:01;;;;;;;7.90;3.80;;;;;;;17.10;79.58;95187.56;4846502;29;20195;-75
2023/06/08 02:07:26;;;;;;;6.77;3.63;;;;;;;17.16;79.16;95191.13;4831689;29;20216;-75
2023/06/08 02:09:52;;;;;;;8.97;3.60;;;;;;;17.10;79.23;95184.91;4848873;29;20199;-75
2023/06/08 02:12:17;;;;;;;8.33;3.40;;;;;;;17.13;79.30;95184.47;4848361;29;20291;-75
2023/06/08 02:14:43;;;;;;;6.07;3.67;;;;;;;17.14;79.12;95182.63;4848629;29;20203;-75
2023/06/08 02:17:08;;;;;;;11.37;3.70;;;;;;;17.08;79.42;95175.59;4849697;29;20216;-74
2023/06/08 02:19:34;;;;;;;7.93;3.50;;;;;;;17.08;79.40;95181.69;4840117;29;20284;-76
2023/06/08 02:22:00;;;;;;;11.43;3.70;;;;;;;17.19;78.84;95178.25;4863143;29;20243;-75
2023/06/08 02:24:25;;;;;;;6.23;3.60;;;;;;;17.13;78.34;95173.88;4817891;29;20219;-75
2023/06/08 02:26:57;;;;;;;7.77;3.87;;;;;;;16.94;79.50;95177.69;4864171;29;20211;-75
2023/06/08 02:29:23;;;;;;;6.57;3.70;;;;;;;17.04;79.02;95180.56;4826430;29;20213;-75
2023/06/08 02:31:49;;;;;;;6.63;3.50;;;;;;;16.94;79.71;95177.69;4845512;29;20216;-76
2023/06/08 02:34:15;;;;;;;8.27;3.87;;;;;;;16.92;79.89;95177.13;4835031;29;20208;-75
2023/06/08 02:36:42;;;;;;;6.97;3.50;;;;;;;17.00;78.95;95174.16;4833162;29;20228;-76
2023/06/08 02:39:07;;;;;;;5.43;3.50;;;;;;;17.01;79.38;95181.03;4832634;29;20228;-75
2023/06/08 02:41:33;;;;;;;6.50;3.60;;;;;;;16.83;80.05;95174.06;4846647;29;20237;-76
2023/06/08 02:43:58;;;;;;;5.90;3.70;;;;;;;16.79;80.24;95170.25;4821153;29;20202;-75
2023/06/08 02:46:24;;;;;;;6.47;3.70;;;;;;;16.70;80.53;95176.13;4848773;29;20279;-74
2023/06/08 02:48:50;;;;;;;7.17;3.73;;;;;;;16.60;81.39;95173.25;4835007;29;20924;-75
2023/06/08 02:51:16;;;;;;;6.97;3.80;;;;;;;16.52;81.41;95178.88;4850761;29;20204;-75
2023/06/08 02:53:42;;;;;;;7.63;3.53;;;;;;;16.64;80.64;95174.41;4818168;29;20898;-75
2023/06/08 02:56:07;;;;;;;7.63;3.70;;;;;;;16.79;80.37;95183.47;4848675;29;20295;-75
2023/06/08 02:58:33;;;;;;;8.37;3.70;;;;;;;16.77;79.82;95185.53;4847410;29;20212;-75
2023/06/08 03:01:00;;;;;;;8.40;3.90;;;;;;;16.83;79.65;95189.91;4844709;29;20211;-76
2023/06/08 03:03:55;;;;;;;9.57;3.80;;;;;;;16.81;80.15;95180.63;4835769;29;20215;-76
2023/06/08 03:06:20;;;;;;;7.70;3.60;;;;;;;16.81;80.03;95185.91;4843762;29;20212;-75
2023/06/08 03:08:47;;;;;;;6.37;3.43;;;;;;;16.87;79.86;95190.25;4865249;29;20271;-75
2023/06/08 03:11:14;;;;;;;8.43;4.00;;;;;;;16.81;79.33;95188.53;4846742;29;20216;-75
2023/06/08 03:13:39;;;;;;;7.80;3.87;;;;;;;16.94;79.75;95188.28;4845965;29;20203;-75
2023/06/08 03:16:07;;;;;;;7.27;3.80;;;;;;;16.96;79.23;95196.78;4861656;29;20983;-75
2023/06/08 03:18:34;;;;;;;7.50;3.60;;;;;;;16.82;79.21;95192.78;4831562;29;20219;-76
2023/06/08 03:21:01;;;;;;;7.83;3.80;;;;;;;16.76;79.41;95186.59;4843576;29;20721;-75
2023/06/08 03:23:28;;;;;;;8.27;3.83;;;;;;;16.64;79.55;95188.44;4862706;29;20196;-75
2023/06/08 03:25:54;;;;;;;6.10;3.60;;;;;;;16.71;78.87;95190.94;4861365;29;20243;-75
2023/06/08 03:28:20;;;;;;;5.93;3.50;;;;;;;16.73;78.82;95192.34;4845477;29;20227;-75
2023/06/08 03:30:45;;;;;;;7.53;3.47;;;;;;;16.56;79.26;95188.78;4861668;29;20212;-75
2023/06/08 03:33:11;;;;;;;7.67;4.00;;;;;;;16.71;79.51;95190.94;4833741;29;20195;-75
2023/06/08 03:35:37;;;;;;;9.00;3.97;;;;;;;16.69;78.99;95187.75;4824087;29;20235;-74
2023/06/08 03:38:03;;;;;;;8.40;3.87;;;;;;;16.69;79.13;95182.44;4830744;29;20196;-76
2023/06/08 03:40:31;;;;;;;8.20;4.07;;;;;;;16.72;79.02;95193.34;4847104;29;20647;-76
2023/06/08 03:42:57;;;;;;;7.93;3.60;;;;;;;16.61;79.04;95199.47;4834996;29;20970;-75
2023/06/08 03:45:22;;;;;;;8.23;3.57;;;;;;;16.65;79.12;95199.78;4861973;29;20290;-75
2023/06/08 03:48:06;;;;;;;7.17;4.13;;;;;;;16.65;79.20;95199.78;4847779;29;20196;-77
2023/06/08 03:50:35;;;;;;;8.30;3.90;;;;;;;16.54;78.91;95197.97;4821685;29;20571;-75
2023/06/08 03:53:08;;;;;;;11.03;4.03;;;;;;;16.56;79.91;95196.69;4860197;29;20203;-77
2023/06/08 03:55:33;;;;;;;6.93;4.13;;;;;;;16.56;80.32;95201.97;4832163;29;20705;-74
2023/06/08 03:58:00;;;;;;;7.53;4.10;;;;;;;16.65;79.89;95205.88;4861914;29;20204;-74
2023/06/08 04:00:25;;;;;;;7.33;3.93;;;;;;;16.60;80.82;95199.66;4846024;29;20836;-74
2023/06/08 04:03:01;;;;;;;9.47;3.90;;;;;;;16.77;79.75;95204.03;4862323;29;20203;-73
2023/06/08 04:05:26;;;;;;;9.07;3.93;;;;;;;16.73;80.45;95204.75;4848011;29;20199;-74
2023/06/08 04:07:52;;;;;;;7.80;4.03;;;;;;;16.76;79.76;95207.75;4844939;29;20211;-75
2023/06/08 04:10:17;;;;;;;10.73;3.97;;;;;;;16.71;80.60;95204.97;4863395;29;20262;-75
2023/06/08 04:12:43;;;;;;;11.67;4.03;;;;;;;16.79;81.04;95203.81;4849409;29;20199;-74
2023/06/08 04:15:09;;;;;;;8.00;4.00;;;;;;;16.74;82.20;95204.50;4866073;29;20254;-74
2023/06/08 04:17:36;;;;;;;8.13;4.10;;;;;;;16.80;81.63;95206.25;4824040;29;20619;-75
2023/06/08 04:20:04;;;;;;;8.27;4.10;;;;;;;16.85;82.01;95200.25;4833325;29;20223;-73
2023/06/08 04:22:29;;;;;;;8.47;4.27;;;;;;;16.91;80.42;95206.47;4864764;29;20303;-76
2023/06/08 04:24:55;;;;;;;7.50;3.87;;;;;;;16.97;80.90;95200.25;4871176;29;20200;-76
2023/06/08 04:27:21;;;;;;;8.00;4.20;;;;;;;16.88;81.54;95202.44;4863840;29;20311;-76
2023/06/08 04:29:52;;;;;;;10.20;4.30;;;;;;;17.01;80.09;95215.41;4867950;29;20188;-76
2023/06/08 04:32:20;;;;;;;10.93;4.53;;;;;;;17.17;79.64;95208.63;4865833;29;20220;-75
2023/06/08 04:34:46;;;;;;;11.27;4.70;;;;;;;17.12;79.44;95206.66;4847845;29;20211;-74
2023/06/08 04:37:35;;;;;;;7.57;4.27;;;;;;;17.17;78.62;95203.31;4865993;29;20272;-76
2023/06/08 04:40:03;;;;;;;11.23;4.30;;;;;;;17.30;78.04;95205.69;4824841;29;20223;-75
2023/06/08 04:42:29;;;;;;;10.47;4.17;;;;;;;17.31;78.21;95208.13;4842016;29;20582;-74
2023/06/08 04:44:59;;;;;;;10.23;5.17;;;;;;;17.33;78.40;95207.88;4857076;29;20237;-74
2023/06/08 04:47:25;;;;;;;12.17;4.30;;;;;;;17.46;77.55;95210.25;4863882;29;20239;-74
2023/06/08 04:50:05;;;;;;;8.70;3.90;;;;;;;17.49;76.84;95201.84;4863914;29;20633;-75
2023/06/08 04:52:37;;;;;;;14.57;4.73;;;;;;;17.42;77.25;95212.56;4849883;29;20283;-75
2023/06/08 04:55:23;;;;;;;15.07;5.87;;;;;;;17.42;78.39;95206.47;4840704;29;20236;-75
2023/06/08 04:57:51;;;;;;;10.63;4.27;;;;;;;17.91;77.40;95210.38;4846407;29;20193;-75
2023/06/08 05:00:18;;;;;;;14.63;4.30;;;;;;;17.83;78.26;95206.25;4834298;29;20238;-75
2023/06/08 05:02:49;;;;;;;11.97;4.23;;;;;;;17.67;80.22;95212.31;4866941;29;20200;-75
2023/06/08 05:05:15;;;;;;;26.37;9.80;;;;;;;17.85;76.73;95203.34;4850508;29;20304;-75
2023/06/08 05:07:42;;;;;;;10.10;3.90;;;;;;;18.89;70.07;95210.66;4820503;29;20192;-75
2023/06/08 05:10:11;;;;;;;12.30;4.00;;;;;;;18.28;73.90;95205.44;4865499;29;20228;-75
2023/06/08 05:12:42;;;;;;;14.43;3.93;;;;;;;18.24;73.61;95204.31;4833399;29;20257;-75
2023/06/08 05:15:08;;;;;;;17.97;4.30;;;;;;;18.35;74.25;95201.59;4840850;29;20219;-75
2023/06/08 05:17:34;;;;;;;12.83;3.90;;;;;;;18.34;75.24;95199.97;4851385;29;20252;-74
2023/06/08 05:20:00;;;;;;;11.53;4.20;;;;;;;18.42;75.43;95204.88;4864575;29;20245;-74
2023/06/08 05:22:25;;;;;;;14.77;4.03;;;;;;;19.44;70.77;95206.13;4861488;29;20251;-74
2023/06/08 05:24:51;;;;;;;11.63;3.90;;;;;;;19.07;70.37;95206.94;4847424;29;20208;-74
2023/06/08 05:27:16;;;;;;;14.03;6.73;;;;;;;18.68;72.23;95216.72;4847069;29;20211;-77
2023/06/08 05:29:42;;;;;;;7.37;3.70;;;;;;;18.72;71.85;95210.66;4847117;29;21128;-76
2023/06/08 05:32:08;;;;;;;7.40;3.40;;;;;;;18.74;72.73;95211.25;4868297;29;20228;-77
2023/06/08 05:34:34;;;;;;;9.90;3.50;;;;;;;19.19;70.38;95207.63;4851267;29;20215;-76
2023/06/08 05:36:59;;;;;;;9.77;3.50;;;;;;;18.88;70.25;95216.22;4838234;29;20203;-75
2023/06/08 05:39:25;;;;;;;8.30;3.70;;;;;;;18.94;69.51;95215.25;4835168;29;20636;-75
2023/06/08 05:41:51;;;;;;;10.43;3.60;;;;;;;18.87;70.97;95220.72;4865331;29;20213;-76
2023/06/08 05:44:16;;;;;;;8.90;3.80;;;;;;;18.98;70.67;95216.38;4847341;29;20203;-76
2023/06/08 05:46:41;;;;;;;7.03;3.77;;;;;;;18.77;71.02;95218.72;4847430;29;20725;-75
2023/06/08 05:49:07;;;;;;;7.07;3.43;;;;;;;18.63;72.82;95216.63;4848983;29;20196;-74
2023/06/08 05:51:32;;;;;;;7.63;3.70;;;;;;;18.58;73.42;95213.91;4842569;29;20295;-75
2023/06/08 05:53:58;;;;;;;7.37;3.70;;;;;;;18.53;73.14;95214.63;4837423;29;20239;-76
2023/06/08 05:56:23;;;;;;;5.87;3.37;;;;;;;18.52;72.70;95212.22;4833859;29;20308;-75
2023/06/08 05:58:49;;;;;;;6.57;3.60;;;;;;;18.64;72.23;95210.28;4838367;29;20673;-76
2023/06/08 06:01:15;;;;;;;6.10;3.20;;;;;;;18.71;73.17;95213.56;4840369;29;20271;-75
2023/06/08 06:03:41;;;;;;;9.00;3.60;;;;;;;18.77;73.15;95213.41;4850298;29;20208;-75
2023/06/08 06:06:07;;;;;;;7.97;3.50;;;;;;;18.93;73.32;95209.13;4829656;29;20207;-76
2023/06/08 06:08:32;;;;;;;24.37;4.10;;;;;;;18.98;71.49;95200.44;4829194;29;20275;-78
2023/06/08 06:10:58;;;;;;;16.93;3.70;;;;;;;19.03;69.82;95206.63;4849165;29;20219;-76
2023/06/08 06:13:27;;;;;;;6.40;3.43;;;;;;;18.97;68.19;95207.59;4836759;29;20316;-77
2023/06/08 06:15:53;;;;;;;5.10;3.40;;;;;;;18.98;70.57;95208.41;4847799;29;20330;-76
2023/06/08 06:18:18;;;;;;;10.50;3.57;;;;;;;18.92;69.38;95207.53;4833718;29;20200;-75
2023/06/08 06:20:44;;;;;;;6.07;3.47;;;;;;;19.01;70.23;95199.97;4863617;29;20267;-74
2023/06/08 06:23:09;;;;;;;7.77;3.90;;;;;;;19.07;70.44;95206.94;4841126;29;20244;-75
2023/06/08 06:25:35;;;;;;;6.87;4.10;;;;;;;19.14;70.40;95203.06;4861440;29;20793;-76
2023/06/08 06:28:02;;;;;;;6.63;3.80;;;;;;;19.06;70.62;95205.34;4856470;29;20207;-77
2023/06/08 06:30:27;;;;;;;8.90;4.03;;;;;;;19.08;70.54;95200.59;4860447;29;20207;-77
2023/06/08 06:32:53;;;;;;;8.97;3.73;;;;;;;19.20;70.10;95203.94;4864590;29;20187;-76
2023/06/08 06:35:32;;;;;;;8.80;3.77;;;;;;;19.27;69.72;95205.34;4865128;29;20216;-75
2023/06/08 06:37:58;;;;;;;8.87;3.60;;;;;;;19.35;67.92;95196.16;4850621;29;20919;-75
2023/06/08 06:40:24;;;;;;;7.53;3.93;;;;;;;19.51;68.16;95199.84;4862893;29;20195;-76
2023/06/08 06:42:49;;;;;;;8.90;3.97;;;;;;;19.55;68.77;95193.78;4860633;29;20195;-74
2023/06/08 06:45:15;;;;;;;10.50;3.87;;;;;;;19.51;68.35;95195.34;4846373;29;20192;-75
2023/06/08 06:47:41;;;;;;;8.87;3.63;;;;;;;19.61;68.89;95192.78;4846787;29;20200;-75
2023/06/08 06:50:41;;;;;;;;;;;;;;;;;;;;;
2023/06/08 06:53:06;;;;;;;6.93;3.83;;;;;;;19.56;68.61;95181.31;4864024;29;20203;-74
2023/06/08 06:55:43;;;;;;;13.17;4.40;;;;;;;19.50;68.88;95180.44;4871018;29;20733;-75
2023/06/08 06:58:15;;;;;;;12.40;4.40;;;;;;;19.66;67.21;95176.91;4863438;29;20210;-75
2023/06/08 07:00:41;;;;;;;11.80;4.40;;;;;;;19.69;67.74;95179.06;4861329;29;20235;-75
2023/06/08 07:03:07;;;;;;;7.57;3.73;;;;;;;19.76;67.38;95176.22;4866216;29;20207;-75
2023/06/08 07:05:33;;;;;;;7.33;3.67;;;;;;;19.73;67.92;95172.19;4848195;29;20205;-75
2023/06/08 07:08:02;;;;;;;9.37;3.93;;;;;;;19.82;68.44;95173.34;4863463;29;20207;-72
2023/06/08 07:10:31;;;;;;;9.10;4.20;;;;;;;19.87;69.23;95167.31;4864070;29;20288;-76
2023/06/08 07:12:59;;;;;;;14.50;6.57;;;;;;;19.97;68.97;95170.84;4868030;29;20228;-72
2023/06/08 07:15:25;;;;;;;11.00;5.33;;;;;;;20.04;67.16;95166.13;4850831;29;20219;-75
2023/06/08 07:18:00;;;;;;;8.13;4.43;;;;;;;19.99;68.63;95166.06;4863056;29;20195;-76
2023/06/08 07:20:26;;;;;;;10.37;4.23;;;;;;;20.22;66.91;95169.47;4848288;29;20216;-72
2023/06/08 07:22:55;;;;;;;9.17;4.30;;;;;;;20.40;65.20;95169.13;4847981;29;20288;-72
2023/06/08 07:25:21;;;;;;;10.57;4.33;;;;;;;20.36;66.25;95170.69;4865658;29;20200;-75
2023/06/08 07:27:56;;;;;;;10.53;4.43;;;;;;;20.44;65.74;95175.53;4867396;29;20230;-75
2023/06/08 07:30:26;;;;;;;10.40;4.20;;;;;;;20.55;66.17;95170.03;4865843;29;20211;-76
2023/06/08 07:32:52;;;;;;;11.20;4.20;;;;;;;20.55;65.94;95170.03;4866873;29;20313;-77
2023/06/08 07:35:23;;;;;;;10.23;4.33;;;;;;;20.56;65.75;95168.19;4863879;29;20219;-75
2023/06/08 07:37:49;;;;;;;8.73;4.03;;;;;;;20.61;65.29;95163.69;4863757;29;20227;-74
2023/06/08 07:40:35;;;;;;;10.10;4.00;;;;;;;20.64;66.23;95165.03;4863817;29;20320;-78
2023/06/08 07:43:12;;;;;;;9.93;4.00;;;;;;;20.65;64.33;95164.00;4864660;29;20220;-76
2023/06/08 07:45:47;;;;;;;11.07;4.30;;;;;;;20.67;65.92;95161.88;4865777;29;20226;-74
2023/06/08 07:48:13;;;;;;;7.57;3.90;;;;;;;20.78;66.79;95152.88;4865528;29;20293;-75
2023/06/08 07:50:38;;;;;;;10.00;4.30;;;;;;;20.81;67.04;95155.03;4861589;29;20215;-75
2023/06/08 07:53:04;;;;;;;8.95;4.57;;;;;;;20.87;65.91;95150.56;4866053;29;20207;-76
2023/06/08 07:55:30;;;;;;;7.83;4.40;;;;;;;20.85;66.13;95145.47;4850435;29;20303;-76
2023/06/08 07:58:08;;;;;;;9.73;4.47;;;;;;;20.94;66.35;95149.28;4847290;29;20199;-76
2023/06/08 08:00:39;;;;;;;12.03;4.77;;;;;;;21.09;66.24;95143.28;4847707;29;20204;-75
2023/06/08 08:03:15;;;;;;;7.97;4.00;;;;;;;21.27;66.49;95151.59;4864667;29;20216;-76
2023/06/08 08:05:48;;;;;;;9.57;4.13;;;;;;;21.38;65.99;95150.56;4849345;29;20255;-75
2023/06/08 08:08:14;;;;;;;8.02;4.22;;;;;;;21.53;65.59;95147.16;4859489;29;20232;-74
2023/06/08 08:10:40;;;;;;;10.53;4.50;;;;;;;21.55;65.58;95146.88;4836538;29;20373;-77
2023/06/08 08:13:07;;;;;;;9.67;4.43;;;;;;;21.66;65.58;95149.31;4849812;29;20215;-76
2023/06/08 08:15:42;;;;;;;11.07;4.50;;;;;;;21.76;66.42;95151.22;4847171;29;20232;-74
2023/06/08 08:18:18;;;;;;;12.43;5.10;;;;;;;21.88;65.35;95151.78;4867443;29;20188;-74
2023/06/08 08:20:53;;;;;;;8.03;4.43;;;;;;;21.89;63.99;95142.75;4863899;29;20215;-74
2023/06/08 08:23:22;;;;;;;9.20;4.40;;;;;;;21.89;65.78;95148.88;4845140;29;20251;-77
2023/06/08 08:25:51;;;;;;;11.67;4.70;;;;;;;21.96;65.09;95137.97;4845160;29;20668;-75
2023/06/08 08:28:38;;;;;;;8.77;4.20;;;;;;;22.10;64.75;95133.72;4856617;29;20196;-76
2023/06/08 08:31:06;;;;;;;9.30;4.28;;;;;;;22.32;64.49;95144.13;4835037;29;20222;-75
2023/06/08 08:33:31;;;;;;;10.77;4.47;;;;;;;22.28;64.53;95141.19;4847965;29;20204;-74
2023/06/08 08:35:57;;;;;;;7.03;4.10;;;;;;;22.22;63.91;95144.13;4862070;29;20254;-75
2023/06/08 08:38:28;;;;;;;10.45;4.53;;;;;;;22.27;64.83;95139.59;4845808;29;20196;-77
2023/06/08 08:41:01;;;;;;;10.10;4.70;;;;;;;22.39;64.85;95125.97;4866662;29;20207;-72
2023/06/08 08:43:49;;;;;;;7.15;4.40;;;;;;;22.55;63.02;95138.22;4836159;29;20219;-71
2023/06/08 08:46:15;;;;;;;14.95;4.60;;;;;;;22.41;62.60;95126.50;4854714;29;20243;-72
2023/06/08 08:48:43;;;;;;;11.38;4.60;;;;;;;22.30;64.34;95131.06;4829502;29;20247;-73
2023/06/08 08:51:20;;;;;;;9.02;4.40;;;;;;;22.38;64.01;95130.50;4830075;29;20216;-72
2023/06/08 08:53:50;;;;;;;8.20;4.50;;;;;;;22.50;64.49;95127.56;4834657;29;20200;-72
2023/06/08 08:56:25;;;;;;;11.73;4.60;;;;;;;22.41;64.21;95127.31;4842269;29;20710;-71
2023/06/08 08:58:51;;;;;;;8.10;4.60;;;;;;;;;;4850654;29;20207;-73
2023/06/08 09:01:20;;;;;;;10.80;4.70;;;;;;;22.78;64.69;95125.16;4836285;29;20227;-72
2023/06/08 09:03:52;;;;;;;11.50;4.75;;;;;;;22.96;62.85;95123.78;4842326;29;20210;-74
2023/06/08 09:06:18;;;;;;;11.18;4.35;;;;;;;23.07;63.03;95129.91;4833241;29;20227;-75
2023/06/08 09:08:43;;;;;;;7.90;4.22;;;;;;;23.15;63.19;95121.31;4864586;29;20220;-74
2023/06/08 09:11:10;;;;;;;7.05;4.20;;;;;;;23.18;62.97;95113.56;4845744;29;21155;-74
2023/06/08 09:13:36;;;;;;;8.50;4.30;;;;;;;23.23;62.20;95118.09;4846312;29;20207;-75
2023/06/08 09:16:14;;;;;;;8.75;4.20;;;;;;;23.35;61.81;95115.94;4839329;29;20232;-75
2023/06/08 09:18:41;;;;;;;20.85;4.35;;;;;;;23.50;60.25;95113.16;4863643;29;20200;-75
2023/06/08 09:21:26;;;;;;;8.57;3.90;;;;;;;23.32;57.22;95119.13;4836155;29;20706;-74
2023/06/08 09:24:08;;;;;;;6.45;4.18;;;;;;;23.22;59.05;95108.47;4846442;29;20212;-75
2023/06/08 09:26:33;;;;;;;6.35;4.30;;;;;;;23.27;59.52;95111.94;4862885;29;20325;-74
2023/06/08 09:29:03;;;;;;;5.72;4.00;;;;;;;23.42;58.90;95111.09;4818931;29;20663;-75
2023/06/08 09:31:31;;;;;;;6.57;3.95;;;;;;;23.47;59.49;95110.25;4844205;29;20709;-74
2023/06/08 09:34:09;;;;;;;9.30;4.38;;;;;;;23.69;60.08;95105.34;4818533;29;20626;-75
2023/06/08 09:36:38;;;;;;;8.70;4.18;;;;;;;23.86;58.94;95111.91;4844935;29;20231;-74
2023/06/08 09:39:05;;;;;;;6.57;3.95;;;;;;;23.80;55.82;95115.69;4846805;29;20286;-74
2023/06/08 09:41:31;;;;;;;7.03;4.00;;;;;;;23.86;58.02;95109.22;4850836;29;20224;-76
2023/06/08 09:43:57;;;;;;;7.60;4.15;;;;;;;24.07;57.74;95105.34;4833813;29;20645;-75
2023/06/08 09:46:45;;;;;;;6.85;3.90;;;;;;;24.07;55.31;95108.03;4844600;29;20409;-75
2023/06/08 09:49:13;;;;;;;6.15;3.95;;;;;;;24.11;57.60;95110.97;4845006;29;20678;-74
2023/06/08 09:51:40;;;;;;;9.13;4.00;;;;;;;24.13;57.20;95100.78;4830973;29;20331;-74
2023/06/08 09:54:06;;;;;;;8.18;3.75;;;;;;;24.28;57.48;95099.88;4821840;29;20283;-74
2023/06/08 09:56:32;;;;;;;8.18;4.32;;;;;;;24.36;56.17;95100.03;4832692;29;20278;-74
2023/06/08 09:59:01;;;;;;;6.88;3.95;;;;;;;24.35;55.64;95095.78;4846673;29;20251;-74
2023/06/08 10:01:41;;;;;;;7.55;4.07;;;;;;;24.10;57.73;95093.31;4832565;29;20626;-76
2023/06/08 10:04:38;;;;;;;8.55;4.03;;;;;;;24.31;56.43;95088.59;4831543;29;20195;-75
2023/06/08 10:07:15;;;;;;;6.47;4.40;;;;;;;24.42;54.05;95090.09;4835158;29;20267;-74
2023/06/08 10:09:42;;;;;;;5.38;3.88;;;;;;;24.50;56.62;95081.47;4836076;29;20677;-74
2023/06/08 10:12:09;;;;;;;7.68;3.90;;;;;;;24.46;56.60;95085.78;4819736;29;20230;-74
2023/06/08 10:14:35;;;;;;;7.53;3.90;;;;;;;24.51;54.11;95083.84;4848327;29;20188;-74
2023/06/08 10:17:00;;;;;;;9.43;3.72;;;;;;;24.48;53.53;95083.66;4839099;29;20246;-74
2023/06/08 10:19:26;;;;;;;7.38;3.80;;;;;;;24.49;54.12;95079.88;4839387;29;20192;-74
2023/06/08 10:21:52;;;;;;;5.60;3.80;;;;;;;24.60;55.59;95071.44;4862492;29;20248;-75
2023/06/08 10:24:18;;;;;;;5.53;3.90;;;;;;;24.56;53.20;95061.59;4832181;29;20701;-74
2023/06/08 10:26:44;;;;;;;4.97;3.60;;;;;;;24.50;52.75;95054.72;4822419;29;20227;-74
2023/06/08 10:29:10;;;;;;;4.82;3.72;;;;;;;24.69;56.39;95056.34;4847123;29;20262;-74
2023/06/08 10:31:40;;;;;;;6.45;3.70;;;;;;;24.70;55.08;95057.16;4847050;29;20236;-74
2023/06/08 10:34:11;;;;;;;8.60;3.88;;;;;;;24.71;55.46;95054.22;4828052;29;20188;-75
2023/06/08 10:36:39;;;;;;;8.00;3.85;;;;;;;24.81;53.41;95057.91;4828300;29;20242;-75
2023/06/08 10:39:10;;;;;;;12.75;3.95;;;;;;;24.79;52.73;95057.38;4819534;29;20188;-75
2023/06/08 10:42:00;;;;;;;9.18;4.00;;;;;;;24.83;54.95;95053.84;4846680;29;20332;-76
2023/06/08 10:44:34;;;;;;;6.70;4.13;;;;;;;24.86;53.76;95057.84;4841800;29;20195;-75
2023/06/08 10:47:06;;;;;;;8.57;3.90;;;;;;;24.91;54.10;95047.84;4862114;29;20223;-74
2023/06/08 10:49:36;;;;;;;5.55;3.60;;;;;;;24.90;53.33;95045.47;4833527;29;20642;-73
2023/06/08 10:52:03;;;;;;;5.32;4.00;;;;;;;24.95;54.40;95048.91;4829558;29;20227;-73
2023/06/08 10:54:30;;;;;;;5.72;3.80;;;;;;;25.12;54.40;95040.38;4820297;29;20286;-72
2023/06/08 10:56:57;;;;;;;6.32;3.80;;;;;;;25.05;53.16;95029.22;4832802;29;20235;-72
2023/06/08 10:59:35;;;;;;;12.48;3.88;;;;;;;25.16;54.52;95028.81;4862894;29;20732;-71
2023/06/08 11:02:04;;;;;;;8.70;4.07;;;;;;;25.15;51.64;95024.53;4830599;29;20223;-71
2023/06/08 11:04:30;;;;;;;5.15;3.40;;;;;;;25.30;50.73;95015.47;4832944;29;21212;-72
2023/06/08 11:07:02;;;;;;;20.45;4.00;;;;;;;25.37;52.39;95016.72;4846479;29;20292;-72
2023/06/08 11:09:48;;;;;;;7.30;3.83;;;;;;;25.41;52.34;95012.38;4839293;29;20937;-73
2023/06/08 11:12:22;;;;;;;7.45;3.50;;;;;;;25.56;51.96;95005.22;4838349;29;20232;-73
2023/06/08 11:14:47;;;;;;;8.63;3.65;;;;;;;25.53;51.05;95000.47;4851083;29;20204;-72
2023/06/08 11:17:13;;;;;;;5.88;3.58;;;;;;;25.54;51.50;94992.13;4820413;29;20220;-72
2023/06/08 11:19:42;;;;;;;5.15;3.58;;;;;;;25.58;52.70;94997.72;4833373;29;20287;-74
2023/06/08 11:22:13;;;;;;;7.95;3.90;;;;;;;25.80;51.91;94995.19;4862974;29;20297;-76
2023/06/08 11:24:58;;;;;;;6.50;3.78;;;;;;;25.82;50.76;94984.97;4852720;29;20230;-75
2023/06/08 11:27:29;;;;;;;8.07;4.00;;;;;;;25.85;51.35;94976.34;4867611;29;20239;-76
2023/06/08 11:29:57;;;;;;;11.13;4.40;;;;;;;25.91;53.34;94973.28;4880249;29;20206;-75
2023/06/08 11:32:22;;;;;;;11.35;3.78;;;;;;;26.10;51.16;94983.97;4878999;29;20432;-75
2023/06/08 11:35:00;;;;;;;9.85;3.95;;;;;;;26.21;51.09;94987.31;4883632;29;20690;-76
2023/06/08 11:37:41;;;;;;;4.93;3.80;;;;;;;26.22;52.35;94972.81;4882871;29;20210;-76
2023/06/08 11:40:13;;;;;;;5.15;3.90;;;;;;;26.16;51.07;94969.41;4882296;29;20189;-77
2023/06/08 11:42:55;;;;;;;7.35;4.32;;;;;;;26.04;52.30;94974.41;4882696;29;20701;-75